Time;durP1;ratioP1;P1;durP2;ratioP2;P2;SDS_P1;SDS_P2;PMS_P1;PMS_P2;Temp;Humidity;BMP_temperature;BMP_pressure;BME280_temperature;BME280_humidity;BME280_pressure;Samples;Min_cycle;Max_cycle;Signal;HPM_P1;HPM_P2
2023/07/29 00:00:45;;;;;;;3.05;1.60;;;;;;;18.17;100.00;100660.03;4949277;28;20232;-82
2023/07/29 00:03:12;;;;;;;27.05;7.88;;;;;;;18.15;100.00;100644.00;4943501;28;20241;-82
2023/07/29 00:05:39;;;;;;;4.85;2.53;;;;;;;18.18;100.00;100641.25;4945016;28;20242;-82
2023/07/29 00:08:06;;;;;;;26.40;7.13;;;;;;;18.20;100.00;100650.19;4945562;28;20230;-82
2023/07/29 00:10:36;;;;;;;2.92;1.45;;;;;;;18.21;100.00;100654.63;4947236;28;20231;-82
2023/07/29 00:13:04;;;;;;;23.33;6.25;;;;;;;18.22;100.00;100653.72;4945136;28;20798;-82
2023/07/29 00:15:32;;;;;;;3.50;1.70;;;;;;;18.21;100.00;100651.94;4951642;28;20285;-82
2023/07/29 00:17:59;;;;;;;18.65;6.63;;;;;;;18.20;100.00;100602.00;4943244;28;20225;-82
2023/07/29 00:20:26;;;;;;;2.58;1.10;;;;;;;18.21;100.00;100648.38;4954150;28;20233;-82
2023/07/29 00:22:54;;;;;;;3.80;2.00;;;;;;;18.20;100.00;100646.59;4940261;28;20222;-81
2023/07/29 00:25:21;;;;;;;2.33;1.13;;;;;;;18.20;100.00;100644.84;4947858;28;20242;-81
2023/07/29 00:27:48;;;;;;;2.00;1.15;;;;;;;18.19;100.00;100672.47;4949832;28;20325;-81
2023/07/29 00:30:15;;;;;;;4.68;2.08;;;;;;;18.19;100.00;100661.78;4934829;28;20315;-82
2023/07/29 00:32:42;;;;;;;4.50;2.13;;;;;;;18.19;100.00;100672.47;4944983;28;20241;-81
2023/07/29 00:35:09;;;;;;;30.35;8.30;;;;;;;18.18;100.00;100677.84;4940803;28;20273;-81
2023/07/29 00:37:37;;;;;;;3.67;1.70;;;;;;;18.18;100.00;100702.84;4945470;28;20240;-81
2023/07/29 00:40:15;;;;;;;29.65;8.88;;;;;;;18.18;100.00;100700.16;4938907;28;20232;-82
2023/07/29 00:42:42;;;;;;;4.05;1.80;;;;;;;18.16;100.00;100696.63;4943768;28;20225;-81
2023/07/29 00:45:09;;;;;;;30.48;7.32;;;;;;;18.16;100.00;100699.31;4941237;28;20232;-81
2023/07/29 00:47:37;;;;;;;4.70;1.92;;;;;;;18.18;100.00;100720.69;4943986;28;20311;-81
2023/07/29 00:50:06;;;;;;;27.02;7.72;;;;;;;18.17;100.00;100726.94;4934424;28;20321;-81
2023/07/29 00:52:33;;;;;;;4.05;1.95;;;;;;;18.19;100.00;100739.41;4941689;28;20316;-82
2023/07/29 00:55:00;;;;;;;25.75;7.25;;;;;;;18.22;100.00;100763.47;4940543;28;20239;-82
2023/07/29 00:57:28;;;;;;;5.95;2.75;;;;;;;18.16;100.00;100747.47;4945532;28;20230;-82
2023/07/29 00:59:55;;;;;;;3.50;1.70;;;;;;;18.22;100.00;100754.56;4942671;28;20236;-82
2023/07/29 01:02:22;;;;;;;2.78;1.50;;;;;;;18.15;100.00;100748.41;4941039;28;20225;-82
2023/07/29 01:04:55;;;;;;;5.55;2.78;;;;;;;18.20;100.00;100770.66;4934672;28;20229;-81
2023/07/29 01:07:31;;;;;;;3.60;1.70;;;;;;;18.30;100.00;100765.13;4940157;28;20233;-81
2023/07/29 01:10:05;;;;;;;12.48;4.03;;;;;;;18.28;100.00;100756.25;4941705;28;20236;-82
2023/07/29 01:12:42;;;;;;;4.97;2.55;;;;;;;18.24;100.00;100755.41;4947494;28;20229;-83
2023/07/29 01:15:22;;;;;;;8.15;3.78;;;;;;;18.22;100.00;100751.88;4934041;28;20292;-83
2023/07/29 01:17:53;;;;;;;9.32;3.10;;;;;;;18.20;100.00;100742.97;4935035;28;20241;-83
2023/07/29 01:20:20;;;;;;;2.83;1.50;;;;;;;18.16;100.00;100742.13;4935746;28;20284;-83
2023/07/29 01:22:47;;;;;;;4.97;2.33;;;;;;;18.16;100.00;100741.25;4941210;28;20234;-83
2023/07/29 01:25:14;;;;;;;7.95;3.05;;;;;;;18.15;100.00;100744.84;4930037;28;20237;-83
2023/07/29 01:27:42;;;;;;;2.75;1.45;;;;;;;18.12;100.00;100739.53;4946373;28;20322;-83
2023/07/29 01:30:09;;;;;;;18.85;5.28;;;;;;;18.10;100.00;100731.53;4925510;28;20244;-84
2023/07/29 01:32:39;;;;;;;2.92;1.48;;;;;;;18.09;100.00;100726.19;4947396;28;20237;-83
2023/07/29 01:35:10;;;;;;;23.70;6.57;;;;;;;18.13;100.00;100735.94;4936350;28;20229;-83
2023/07/29 01:37:37;;;;;;;3.70;1.75;;;;;;;18.14;100.00;100733.25;4943382;28;20240;-84
2023/07/29 01:40:05;;;;;;;17.20;4.85;;;;;;;18.15;100.00;100732.34;4936691;28;20240;-84
2023/07/29 01:42:32;;;;;;;3.88;1.95;;;;;;;18.17;100.00;100732.31;4937098;28;20234;-84
2023/07/29 01:44:59;;;;;;;19.83;5.60;;;;;;;18.12;100.00;100728.81;4931525;28;20229;-84
2023/07/29 01:47:26;;;;;;;4.95;2.85;;;;;;;18.10;100.00;100736.00;4942824;28;20719;-83
2023/07/29 01:49:53;;;;;;;3.20;1.40;;;;;;;18.06;100.00;100740.53;4945828;28;20241;-84
2023/07/29 01:52:20;;;;;;;3.17;1.77;;;;;;;18.06;100.00;100736.97;4939254;28;20694;-84
2023/07/29 01:54:46;;;;;;;5.05;2.42;;;;;;;18.02;100.00;100724.53;4943347;28;20232;-83
2023/07/29 01:57:13;;;;;;;29.73;7.05;;;;;;;18.03;100.00;100737.00;4941812;28;20230;-84
2023/07/29 01:59:40;;;;;;;3.22;1.52;;;;;;;18.01;100.00;100733.47;4948175;28;20249;-83
2023/07/29 02:02:07;;;;;;;30.38;7.43;;;;;;;17.96;100.00;100728.19;4940393;28;20236;-83
2023/07/29 02:04:34;;;;;;;3.53;1.80;;;;;;;17.89;100.00;100734.56;4945425;28;20230;-83
2023/07/29 02:07:00;;;;;;;28.13;7.20;;;;;;;17.84;100.00;100742.66;4943174;28;20229;-84
2023/07/29 02:09:27;;;;;;;3.25;1.40;;;;;;;17.94;100.00;100748.75;4939520;28;20222;-83
2023/07/29 02:11:54;;;;;;;4.47;2.08;;;;;;;17.92;100.00;100742.53;4947907;28;20245;-83
2023/07/29 02:14:21;;;;;;;3.63;1.83;;;;;;;17.89;100.00;100739.91;4944157;28;20583;-83
2023/07/29 02:16:48;;;;;;;2.03;1.25;;;;;;;17.96;100.00;100749.59;4948762;28;20326;-83
2023/07/29 02:19:15;;;;;;;6.97;2.83;;;;;;;17.99;100.00;100751.34;4945610;28;21202;-83
2023/07/29 02:21:41;;;;;;;2.92;1.40;;;;;;;17.98;100.00;100753.16;4953436;28;20236;-83
2023/07/29 02:24:08;;;;;;;25.33;6.20;;;;;;;18.00;100.00;100753.13;4937945;28;20234;-83
2023/07/29 02:26:35;;;;;;;3.22;1.75;;;;;;;18.00;100.00;100756.69;4950718;28;20239;-83
2023/07/29 02:29:02;;;;;;;25.13;7.00;;;;;;;17.99;100.00;100762.06;4942971;28;20240;-83
2023/07/29 02:31:29;;;;;;;3.42;1.88;;;;;;;18.00;100.00;100755.78;4948837;28;20237;-83
2023/07/29 02:33:56;;;;;;;3.72;1.70;;;;;;;18.00;100.00;100756.69;4943917;28;20230;-84
2023/07/29 02:36:23;;;;;;;4.32;2.15;;;;;;;17.96;100.00;100759.44;4946168;28;20243;-83
2023/07/29 02:38:49;;;;;;;2.80;1.40;;;;;;;18.01;100.00;100747.75;4962003;28;20237;-83
2023/07/29 02:41:16;;;;;;;5.60;2.33;;;;;;;18.00;100.00;100745.09;4938305;28;20249;-83
2023/07/29 02:43:43;;;;;;;2.75;1.42;;;;;;;17.96;100.00;100746.03;4947324;28;20233;-83
2023/07/29 02:46:10;;;;;;;27.33;7.20;;;;;;;17.95;100.00;100745.16;4940692;28;20223;-83
2023/07/29 02:48:37;;;;;;;3.03;1.65;;;;;;;17.96;100.00;100741.59;4945115;28;20584;-82
2023/07/29 02:51:04;;;;;;;22.55;6.30;;;;;;;17.96;100.00;100749.59;4947751;28;20232;-83
2023/07/29 02:53:30;;;;;;;3.30;1.65;;;;;;;17.94;100.00;100735.38;4951529;28;20253;-83
2023/07/29 02:55:57;;;;;;;6.43;2.30;;;;;;;17.94;100.00;100742.50;4946541;28;20247;-83
2023/07/29 02:58:26;;;;;;;8.35;4.00;;;;;;;17.92;100.00;100740.75;4968554;23;20241;-76
2023/07/29 03:00:53;;;;;;;3.67;1.63;;;;;;;17.92;100.00;100751.44;4951856;28;20240;-77
2023/07/29 03:03:19;;;;;;;3.50;1.77;;;;;;;17.92;100.00;100739.88;4953106;28;20245;-77
2023/07/29 03:05:46;;;;;;;4.90;2.17;;;;;;;17.92;100.00;100735.41;4950118;28;20236;-77
2023/07/29 03:08:13;;;;;;;32.38;7.47;;;;;;;17.93;100.00;100741.63;4948828;28;20236;-77
2023/07/29 03:10:40;;;;;;;3.72;1.98;;;;;;;17.92;100.00;100739.88;4947789;28;20241;-77
2023/07/29 03:13:06;;;;;;;12.10;3.85;;;;;;;17.90;100.00;100742.56;4958168;28;20263;-80
2023/07/29 03:15:34;;;;;;;7.10;3.30;;;;;;;17.92;100.00;100740.75;4945184;28;20229;-76
2023/07/29 03:18:01;;;;;;;24.27;6.20;;;;;;;17.92;100.00;100746.09;4949848;28;20233;-76
2023/07/29 03:20:28;;;;;;;3.20;1.60;;;;;;;17.95;100.00;100749.63;4954451;28;20256;-75
2023/07/29 03:22:55;;;;;;;4.13;2.10;;;;;;;17.92;100.00;100747.88;4951557;28;20252;-76
2023/07/29 03:25:22;;;;;;;3.97;1.83;;;;;;;17.94;100.00;100746.06;4952631;28;20229;-76
2023/07/29 03:27:49;;;;;;;5.15;2.42;;;;;;;17.92;100.00;100747.88;4955009;28;20784;-77
2023/07/29 03:30:19;;;;;;;7.65;2.70;;;;;;;17.93;100.00;100733.59;4949416;28;20240;-76
2023/07/29 03:32:46;;;;;;;3.70;1.77;;;;;;;17.89;100.00;100729.22;4955009;28;20240;-76
2023/07/29 03:35:13;;;;;;;31.08;6.97;;;;;;;17.89;100.00;100722.06;4953274;28;20233;-76
2023/07/29 03:37:40;;;;;;;4.57;2.00;;;;;;;17.88;100.00;100724.75;4967695;28;20244;-76
2023/07/29 03:40:08;;;;;;;32.97;8.75;;;;;;;17.90;100.00;100733.66;4953588;28;20233;-76
2023/07/29 03:42:36;;;;;;;4.65;2.13;;;;;;;17.85;100.00;100739.06;4958634;28;20236;-76
2023/07/29 03:45:03;;;;;;;19.90;5.47;;;;;;;17.86;100.00;100737.28;4952731;28;20240;-76
2023/07/29 03:47:30;;;;;;;4.25;2.00;;;;;;;17.82;100.00;100752.50;4972722;28;20267;-77
2023/07/29 03:49:56;;;;;;;4.43;1.83;;;;;;;17.86;100.00;100769.41;4956750;28;20715;-77
2023/07/29 03:52:23;;;;;;;4.03;1.88;;;;;;;17.87;100.00;100776.50;4961181;28;20233;-76
2023/07/29 03:54:50;;;;;;;4.70;2.17;;;;;;;17.82;100.00;100786.41;4968098;28;20233;-77
2023/07/29 03:57:17;;;;;;;7.13;2.92;;;;;;;17.90;100.00;100790.72;4955441;28;20240;-77
2023/07/29 03:59:43;;;;;;;4.65;2.20;;;;;;;17.89;100.00;100780.94;4960785;28;20238;-77
2023/07/29 04:02:10;;;;;;;29.60;6.88;;;;;;;17.94;100.00;100772.84;4956863;28;20248;-76
2023/07/29 04:04:37;;;;;;;5.10;2.20;;;;;;;17.98;100.00;100771.00;4958043;28;20232;-77
2023/07/29 04:07:04;;;;;;;22.25;6.35;;;;;;;18.00;100.00;100774.53;4955914;28;20237;-77
2023/07/29 04:09:31;;;;;;;4.90;1.95;;;;;;;18.02;100.00;100776.28;4960647;28;20252;-77
2023/07/29 04:11:57;;;;;;;7.68;3.15;;;;;;;18.04;100.00;100778.91;4955626;28;20241;-77
2023/07/29 04:14:24;;;;;;;4.07;1.85;;;;;;;18.03;100.00;100778.03;4960194;28;20237;-76
2023/07/29 04:16:51;;;;;;;4.25;1.80;;;;;;;18.06;100.00;100778.00;4961850;28;20241;-76
2023/07/29 04:19:18;;;;;;;4.03;1.83;;;;;;;18.09;100.00;100785.09;4956338;28;20229;-76
2023/07/29 04:21:46;;;;;;;4.30;1.90;;;;;;;18.09;100.00;100785.09;4960499;28;20248;-77
2023/07/29 04:24:12;;;;;;;25.83;7.20;;;;;;;18.13;100.00;100778.78;4951898;28;20229;-77
2023/07/29 04:26:39;;;;;;;3.90;1.75;;;;;;;18.11;100.00;100777.91;4960839;28;20238;-76
2023/07/29 04:29:06;;;;;;;31.00;7.18;;;;;;;18.12;100.00;100783.25;4955223;28;20252;-76
2023/07/29 04:31:33;;;;;;;4.93;2.20;;;;;;;18.13;100.00;100784.13;4961073;28;20233;-76
2023/07/29 04:33:59;;;;;;;12.20;4.15;;;;;;;18.17;100.00;100775.13;4955915;28;20329;-76
2023/07/29 04:36:26;;;;;;;5.07;2.13;;;;;;;18.18;100.00;100771.56;4960241;28;20225;-76
2023/07/29 04:38:53;;;;;;;3.97;2.13;;;;;;;18.21;100.00;100779.56;4962161;28;20225;-76
2023/07/29 04:41:20;;;;;;;4.88;2.15;;;;;;;18.23;100.00;100789.34;4955961;28;20241;-76
2023/07/29 04:43:46;;;;;;;5.38;2.30;;;;;;;18.28;100.00;100796.41;4955588;28;20237;-76
2023/07/29 04:46:13;;;;;;;32.40;7.35;;;;;;;18.29;100.00;100783.00;4954751;28;20225;-76
2023/07/29 04:48:40;;;;;;;3.67;1.88;;;;;;;18.31;100.00;100783.84;4961087;28;20308;-76
2023/07/29 04:51:07;;;;;;;33.63;9.27;;;;;;;18.30;100.00;100790.13;4954337;28;20232;-75
2023/07/29 04:53:36;;;;;;;3.33;1.52;;;;;;;18.35;100.00;100782.00;4960467;28;20227;-76
2023/07/29 04:56:03;;;;;;;20.17;5.18;;;;;;;18.36;100.00;100786.44;4956355;28;20221;-76
2023/07/29 04:58:29;;;;;;;5.38;2.30;;;;;;;18.37;100.00;100788.22;4959100;28;20319;-76
2023/07/29 05:00:56;;;;;;;4.25;1.90;;;;;;;18.41;100.00;100796.16;4953709;28;20229;-77
2023/07/29 05:03:23;;;;;;;4.20;1.80;;;;;;;18.41;100.00;100788.13;4959617;28;20299;-76
2023/07/29 05:05:51;;;;;;;3.05;1.55;;;;;;;18.42;100.00;100802.41;4962199;28;20244;-76
2023/07/29 05:08:18;;;;;;;4.32;1.90;;;;;;;18.47;100.00;100811.25;4957646;28;20245;-76
2023/07/29 05:10:48;;;;;;;4.10;1.92;;;;;;;18.50;100.00;100817.44;4962121;28;20217;-76
2023/07/29 05:13:15;;;;;;;3.25;1.52;;;;;;;18.52;100.00;100823.66;4957409;28;20685;-76
2023/07/29 05:15:42;;;;;;;4.65;2.22;;;;;;;18.52;100.00;100826.31;4961817;28;20233;-76
2023/07/29 05:18:08;;;;;;;9.15;3.42;;;;;;;18.57;100.00;100834.28;4958011;28;20245;-76
2023/07/29 05:20:35;;;;;;;3.55;1.73;;;;;;;18.57;100.00;100828.94;4944184;28;20230;-76
2023/07/29 05:23:02;;;;;;;7.82;3.15;;;;;;;18.60;100.00;100815.47;4955374;28;20251;-76
2023/07/29 05:25:28;;;;;;;3.55;1.77;;;;;;;18.59;100.00;100816.38;4961069;28;20236;-76
2023/07/29 05:27:55;;;;;;;3.70;1.77;;;;;;;18.62;100.00;100832.44;4958363;28;20237;-76
2023/07/29 05:30:22;;;;;;;3.85;1.80;;;;;;;18.63;100.00;100822.59;4961095;28;20229;-76
2023/07/29 05:32:49;;;;;;;4.22;1.90;;;;;;;18.68;100.00;100829.66;4961356;28;20243;-76
2023/07/29 05:35:15;;;;;;;3.22;1.50;;;;;;;18.73;100.00;100821.53;4952846;28;20237;-76
2023/07/29 05:37:42;;;;;;;3.08;1.75;;;;;;;18.79;100.00;100806.22;4964305;28;20229;-75
2023/07/29 05:40:09;;;;;;;6.97;2.92;;;;;;;18.81;100.00;100843.72;4955902;28;20232;-75
2023/07/29 05:42:36;;;;;;;4.20;2.15;;;;;;;18.82;100.00;100840.13;4959699;28;20229;-75
2023/07/29 05:45:02;;;;;;;6.78;2.97;;;;;;;18.83;100.00;100845.44;4954690;28;20224;-75
2023/07/29 05:47:29;;;;;;;2.10;1.15;;;;;;;18.83;100.00;100837.41;4961225;28;20233;-75
2023/07/29 05:49:56;;;;;;;4.05;2.20;;;;;;;18.88;100.00;100853.41;4954492;28;20317;-73
2023/07/29 05:52:23;;;;;;;2.78;1.63;;;;;;;18.90;100.00;100838.19;4956178;28;20236;-73
2023/07/29 05:54:50;;;;;;;3.15;1.75;;;;;;;18.96;100.00;100843.44;4961120;28;20228;-73
2023/07/29 05:57:16;;;;;;;3.28;1.83;;;;;;;19.03;100.00;100879.91;4956402;28;20244;-73
2023/07/29 05:59:43;;;;;;;3.00;1.50;;;;;;;19.00;100.00;100884.47;4956924;28;20221;-74
2023/07/29 06:02:10;;;;;;;8.18;3.75;;;;;;;19.06;100.00;100854.84;4952834;28;20241;-75
2023/07/29 06:04:36;;;;;;;2.58;1.50;;;;;;;19.12;100.00;100894.94;4957732;28;20729;-74
2023/07/29 06:07:04;;;;;;;8.80;3.55;;;;;;;19.12;100.00;100914.59;4956205;28;20661;-74
2023/07/29 06:09:30;;;;;;;2.83;1.75;;;;;;;19.12;100.00;100903.88;4964065;28;20228;-74
2023/07/29 06:11:57;;;;;;;5.28;2.53;;;;;;;19.18;100.00;100870.72;4955933;28;20237;-74
2023/07/29 06:14:24;;;;;;;2.50;1.38;;;;;;;19.21;100.00;100883.16;4954993;28;20239;-75
2023/07/29 06:16:50;;;;;;;2.08;1.20;;;;;;;19.31;100.00;100906.22;4959320;28;20235;-74
2023/07/29 06:19:19;;;;;;;4.05;2.08;;;;;;;19.39;100.00;100915.88;4951701;28;20233;-74
2023/07/29 06:21:46;;;;;;;3.88;2.08;;;;;;;19.35;100.00;100910.59;4962563;28;20248;-74
2023/07/29 06:24:13;;;;;;;6.80;2.70;;;;;;;19.38;100.00;100919.47;4951027;28;20235;-74
2023/07/29 06:26:39;;;;;;;2.72;1.58;;;;;;;19.41;100.00;100919.41;4956989;28;20698;-75
2023/07/29 06:29:06;;;;;;;7.97;3.10;;;;;;;19.46;100.00;100924.69;4952524;28;20233;-75
2023/07/29 06:31:33;;;;;;;3.40;1.75;;;;;;;19.50;100.00;100937.13;4960719;28;20240;-74
2023/07/29 06:33:59;;;;;;;4.35;1.92;;;;;;;19.59;100.00;100926.28;4954744;28;20359;-74
2023/07/29 06:36:26;;;;;;;2.30;1.38;;;;;;;19.67;100.00;100928.81;4960652;28;20240;-74
2023/07/29 06:38:53;;;;;;;2.92;1.38;;;;;;;19.70;100.00;100926.06;4961101;28;20225;-74
2023/07/29 06:41:20;;;;;;;3.90;1.83;;;;;;;19.82;100.00;100928.47;4955362;28;20243;-74
2023/07/29 06:43:46;;;;;;;2.83;1.80;;;;;;;19.89;100.00;100932.81;4959668;28;20234;-75
2023/07/29 06:46:13;;;;;;;6.68;2.85;;;;;;;19.97;100.00;100929.97;4956236;28;20226;-74
2023/07/29 06:48:40;;;;;;;3.15;1.60;;;;;;;20.14;100.00;100939.41;4959059;28;20227;-74
2023/07/29 06:51:06;;;;;;;6.28;2.35;;;;;;;20.24;100.00;100936.50;4955579;28;20724;-74
2023/07/29 06:53:33;;;;;;;2.95;1.55;;;;;;;20.25;100.00;100922.16;4953338;28;20310;-74
2023/07/29 06:56:00;;;;;;;6.78;2.70;;;;;;;20.44;100.00;100915.47;4955822;28;20221;-74
2023/07/29 06:58:27;;;;;;;3.13;1.70;;;;;;;20.65;100.00;100923.03;4957819;28;20309;-74
2023/07/29 07:00:54;;;;;;;2.63;1.40;;;;;;;20.66;100.00;100902.41;4961103;28;20239;-74
2023/07/29 07:03:23;;;;;;;2.28;1.40;;;;;;;20.61;100.00;100897.13;4955288;28;20232;-74
2023/07/29 07:05:50;;;;;;;3.22;1.63;;;;;;;20.65;100.00;100877.34;4956155;28;20311;-75
2023/07/29 07:08:16;;;;;;;1.90;1.33;;;;;;;20.70;100.00;100861.09;4952794;28;20228;-73
2023/07/29 07:10:43;;;;;;;4.18;2.00;;;;;;;20.75;100.00;100843.91;4960109;28;20607;-74
2023/07/29 07:13:10;;;;;;;5.25;2.60;;;;;;;21.08;100.00;100850.22;4952254;28;20255;-74
2023/07/29 07:15:36;;;;;;;3.33;1.83;;;;;;;21.44;100.00;100850.16;4957185;28;20232;-74
2023/07/29 07:18:03;;;;;;;4.78;2.35;;;;;;;21.35;100.00;100807.38;4951543;28;20225;-74
2023/07/29 07:20:30;;;;;;;2.33;1.30;;;;;;;21.44;100.00;100790.94;4959657;28;20243;-75
2023/07/29 07:22:56;;;;;;;3.22;2.25;;;;;;;21.46;100.00;100755.91;4956174;28;20259;-75
2023/07/29 07:25:23;;;;;;;2.65;1.58;;;;;;;21.47;100.00;100718.19;4963933;28;20236;-75
2023/07/29 07:27:50;;;;;;;2.88;1.50;;;;;;;21.35;100.00;100671.03;4958425;28;20224;-75
2023/07/29 07:30:17;;;;;;;3.97;1.73;;;;;;;21.29;100.00;100624.63;4956382;28;20240;-75
2023/07/29 07:32:45;;;;;;;3.10;1.90;;;;;;;21.28;100.00;100588.78;4960404;28;20228;-74
2023/07/29 07:35:12;;;;;;;6.70;2.55;;;;;;;21.35;100.00;100579.56;4959328;28;20628;-74
2023/07/29 07:37:38;;;;;;;2.67;1.55;;;;;;;21.39;100.00;100554.31;4963212;28;20220;-75
2023/07/29 07:40:06;;;;;;;4.65;2.40;;;;;;;21.51;100.00;100542.25;4959954;28;20224;-74
2023/07/29 07:42:32;;;;;;;2.17;1.27;;;;;;;21.59;100.00;100525.84;4958469;28;20243;-74
2023/07/29 07:44:59;;;;;;;4.85;2.38;;;;;;;21.70;100.00;100491.38;4956618;28;20228;-76
2023/07/29 07:47:26;;;;;;;2.67;1.55;;;;;;;21.85;100.00;100490.81;4958753;28;20236;-74
2023/07/29 07:49:52;;;;;;;2.88;1.50;;;;;;;21.76;100.00;100458.84;4963798;28;20236;-74
2023/07/29 07:52:19;;;;;;;2.33;1.45;;;;;;;21.84;100.00;100432.53;4961158;28;20251;-74
2023/07/29 07:54:51;;;;;;;3.45;1.83;;;;;;;21.98;100.00;100405.94;4963342;28;20235;-74
2023/07/29 07:57:20;;;;;;;2.90;1.60;;;;;;;21.86;100.00;100354.38;4952429;28;20244;-74
2023/07/29 07:59:47;;;;;;;2.58;1.40;;;;;;;21.78;100.00;100294.59;4958521;28;20228;-74
2023/07/29 08:02:13;;;;;;;7.40;2.80;;;;;;;21.74;100.00;100272.28;4952290;28;20235;-75
2023/07/29 08:04:40;;;;;;;3.88;1.83;;;;;;;21.55;100.00;100225.50;4963327;28;20227;-74
2023/07/29 08:07:06;;;;;;;6.80;2.72;;;;;;;21.48;100.00;100184.53;4957207;28;20237;-75
2023/07/29 08:09:33;;;;;;;2.42;1.35;;;;;;;21.49;100.00;100159.38;4963979;28;20233;-74
2023/07/29 08:12:00;;;;;;;7.50;3.22;;;;;;;21.44;100.00;100136.28;4957852;28;20221;-74
2023/07/29 08:14:27;;;;;;;3.15;2.10;;;;;;;21.35;100.00;100099.88;4960560;28;20327;-74
2023/07/29 08:16:53;;;;;;;2.25;1.25;;;;;;;21.26;100.00;100084.09;4964306;28;20232;-75
2023/07/29 08:19:20;;;;;;;2.83;1.40;;;;;;;21.18;100.00;100072.75;4957846;28;20239;-75
2023/07/29 08:21:48;;;;;;;3.30;1.75;;;;;;;21.39;100.00;100096.13;4961813;28;20252;-74
2023/07/29 08:24:15;;;;;;;2.85;1.50;;;;;;;21.65;100.00;100121.94;4958802;28;20236;-74
2023/07/29 08:26:41;;;;;;;2.40;1.48;;;;;;;21.86;100.00;100131.81;4958150;28;20229;-74
2023/07/29 08:29:08;;;;;;;5.68;2.38;;;;;;;21.80;100.00;100094.38;4958845;28;20315;-74
2023/07/29 08:31:35;;;;;;;2.88;1.60;;;;;;;22.09;100.00;100097.69;4962286;28;20224;-74
2023/07/29 08:34:02;;;;;;;7.13;2.85;;;;;;;22.27;100.00;100094.22;4951444;28;20236;-75
2023/07/29 08:36:28;;;;;;;2.80;1.45;;;;;;;22.43;100.00;100080.94;4961798;28;20224;-75
2023/07/29 08:38:55;;;;;;;5.15;2.45;;;;;;;22.74;100.00;100081.28;4957154;28;20232;-75
2023/07/29 08:41:29;;;;;;;3.78;1.83;;;;;;;22.47;100.00;100025.94;4958415;28;20220;-75
2023/07/29 08:44:07;;;;;;;3.53;1.67;;;;;;;22.75;100.00;100030.91;4959732;28;20287;-74
2023/07/29 08:46:39;;;;;;;4.00;2.08;;;;;;;22.53;100.00;99993.31;4965059;28;20251;-76
2023/07/29 08:49:06;;;;;;;7.10;2.85;;;;;;;22.74;100.00;99988.75;4959818;28;20255;-76
2023/07/29 08:51:33;;;;;;;4.80;2.47;;;;;;;22.68;100.00;99973.72;4955975;28;20232;-74
2023/07/29 08:54:01;;;;;;;7.55;2.88;;;;;;;22.76;100.00;99960.75;4953651;28;20240;-74
2023/07/29 08:56:30;;;;;;;2.28;1.10;;;;;;;22.76;100.00;99933.81;4964447;28;20244;-74
2023/07/29 08:58:57;;;;;;;2.88;1.52;;;;;;;22.85;100.00;99916.34;4954476;28;20224;-75
2023/07/29 09:01:24;;;;;;;3.38;1.80;;;;;;;22.78;100.00;99901.38;4957423;28;20234;-74
2023/07/29 09:03:51;;;;;;;2.70;1.40;;;;;;;22.84;100.00;99906.50;4959644;28;20228;-74
2023/07/29 09:06:18;;;;;;;3.38;1.70;;;;;;;22.94;100.00;99903.25;4953180;28;20708;-74
2023/07/29 09:08:45;;;;;;;2.80;1.50;;;;;;;23.53;100.00;99920.94;4960020;28;20233;-74
2023/07/29 09:11:16;;;;;;;5.40;2.22;;;;;;;23.67;100.00;99909.44;4955447;28;20246;-74
2023/07/29 09:13:43;;;;;;;4.13;2.15;;;;;;;23.82;100.00;99910.44;4960880;28;20354;-74
2023/07/29 09:16:10;;;;;;;6.00;2.17;;;;;;;23.97;100.00;99888.03;4958111;28;20224;-75
2023/07/29 09:18:37;;;;;;;2.50;1.40;;;;;;;24.29;100.00;99874.59;4960936;28;20251;-74
2023/07/29 09:21:04;;;;;;;7.72;2.75;;;;;;;24.65;100.00;99855.38;4955413;28;20233;-74
2023/07/29 09:23:41;;;;;;;3.53;1.80;;;;;;;24.47;100.00;99792.44;4960554;28;20708;-74
2023/07/29 09:26:08;;;;;;;6.88;2.65;;;;;;;24.56;100.00;99762.19;4958398;28;20228;-75
2023/07/29 09:28:38;;;;;;;2.95;1.45;;;;;;;24.38;100.00;99710.09;4961737;28;20235;-75
2023/07/29 09:31:05;;;;;;;6.55;2.30;;;;;;;24.64;100.00;99715.75;4957921;28;20283;-75
2023/07/29 09:33:36;;;;;;;3.08;1.58;;;;;;;24.71;100.00;99711.75;4956179;28;20240;-75
2023/07/29 09:36:09;;;;;;;7.38;2.70;;;;;;;25.11;100.00;99700.25;4954419;28;20228;-75
2023/07/29 09:38:36;;;;;;;4.10;1.92;;;;;;;25.67;100.00;99698.53;4964585;28;20231;-75
2023/07/29 09:41:03;;;;;;;6.93;2.78;;;;;;;25.86;100.00;99683.78;4949803;28;20279;-75
2023/07/29 09:43:32;;;;;;;3.97;1.95;;;;;;;25.69;100.00;99636.13;4957446;28;20228;-75
2023/07/29 09:46:01;;;;;;;4.88;2.00;;;;;;;25.65;100.00;99612.91;4957423;28;20219;-76
2023/07/29 09:48:30;;;;;;;4.47;2.00;;;;;;;24.81;100.00;99507.44;4956271;28;20307;-74
2023/07/29 09:50:57;;;;;;;5.25;2.25;;;;;;;25.00;100.00;99547.72;4956929;28;20235;-73
2023/07/29 09:53:24;;;;;;;5.05;2.10;;;;;;;25.04;100.00;99523.06;4951992;28;20615;-75
2023/07/29 09:55:53;;;;;;;4.75;2.05;;;;;;;25.96;100.00;99596.38;4955150;28;20232;-75
2023/07/29 09:58:27;;;;;;;4.85;1.92;;;;;;;25.89;100.00;99553.56;4941812;28;20244;-75
2023/07/29 10:00:54;;;;;;;4.30;1.75;;;;;;;25.69;100.00;99550.34;4953335;28;20239;-75
2023/07/29 10:03:22;;;;;;;5.40;2.22;;;;;;;25.53;100.00;99511.72;4933092;28;20319;-75
2023/07/29 10:05:53;;;;;;;5.07;1.85;;;;;;;25.76;100.00;99531.84;4955245;28;20264;-74
2023/07/29 10:08:23;;;;;;;4.55;1.80;;;;;;;25.55;100.00;99509.75;4944330;28;20235;-74
2023/07/29 10:10:50;;;;;;;5.90;2.08;;;;;;;25.55;100.00;99515.19;4952860;28;20291;-74
2023/07/29 10:13:18;;;;;;;7.10;2.30;;;;;;;25.83;100.00;99534.03;4940075;28;20240;-74
2023/07/29 10:15:45;;;;;;;6.15;2.17;;;;;;;25.62;100.00;99469.59;4936679;28;20252;-74
2023/07/29 10:18:12;;;;;;;52.70;13.77;;;;;;;26.00;100.00;99511.22;4948807;28;20236;-75
2023/07/29 10:20:41;;;;;;;5.78;2.10;;;;;;;26.16;100.00;99492.06;4941196;28;20771;-75
2023/07/29 10:23:08;;;;;;;40.80;12.32;;;;;;;26.07;100.00;99446.66;4949152;28;20224;-75
2023/07/29 10:25:39;;;;;;;4.82;2.08;;;;;;;26.30;100.00;99440.47;4970796;28;20239;-75
2023/07/29 10:28:07;;;;;;;38.47;9.93;;;;;;;26.55;100.00;99436.88;4952629;28;20717;-75
2023/07/29 10:30:34;;;;;;;5.53;2.17;;;;;;;26.59;100.00;99434.81;4959489;28;20228;-75
2023/07/29 10:33:05;;;;;;;13.35;3.72;;;;;;;26.69;100.00;99387.06;4953936;28;20224;-76
2023/07/29 10:35:33;;;;;;;5.38;2.22;;;;;;;26.60;100.00;99369.63;4960760;28;20227;-75
2023/07/29 10:38:01;;;;;;;7.70;2.72;;;;;;;26.68;100.00;99317.53;4953336;28;20244;-77
2023/07/29 10:40:45;;;;;;;4.25;1.70;;;;;;;26.97;100.00;99340.66;4958640;28;20247;-75
2023/07/29 10:43:14;;;;;;;14.85;4.72;;;;;;;27.34;100.00;99352.28;4953659;28;20235;-76
2023/07/29 10:45:42;;;;;;;4.93;1.83;;;;;;;27.32;100.00;99320.81;4961861;28;20234;-76
2023/07/29 10:48:13;;;;;;;9.02;2.95;;;;;;;27.20;100.00;99281.91;4957422;28;20235;-76
2023/07/29 10:50:40;;;;;;;6.70;2.50;;;;;;;26.71;100.00;99220.53;4954512;28;20232;-76
2023/07/29 10:53:06;;;;;;;12.02;3.45;;;;;;;26.40;100.00;99159.66;4953671;28;20602;-76
2023/07/29 10:55:38;;;;;;;7.13;2.40;;;;;;;26.19;100.00;99111.63;4957674;28;20236;-76
2023/07/29 10:58:22;;;;;;;14.25;3.85;;;;;;;26.23;100.00;99115.81;4955200;28;20227;-76
2023/07/29 11:00:49;;;;;;;5.72;1.98;;;;;;;26.63;100.00;99130.78;4963663;28;20231;-75
2023/07/29 11:03:16;;;;;;;7.97;2.60;;;;;;;26.87;100.00;99117.13;4958098;28;20364;-76
2023/07/29 11:05:48;;;;;;;6.00;2.10;;;;;;;26.82;100.00;99179.03;4961347;28;20220;-75
2023/07/29 11:08:27;;;;;;;7.88;2.67;;;;;;;26.87;100.00;99190.38;4958577;28;20243;-75
2023/07/29 11:11:02;;;;;;;6.38;2.05;;;;;;;26.79;100.00;99198.25;4964927;28;20228;-77
2023/07/29 11:13:30;;;;;;;8.48;2.65;;;;;;;27.10;100.00;99273.59;4960675;28;20224;-77
2023/07/29 11:15:58;;;;;;;15.82;5.05;;;;;;;26.78;100.00;99204.66;4952284;28;20231;-76
2023/07/29 11:18:33;;;;;;;7.15;2.15;;;;;;;26.84;100.00;99206.03;4974851;28;20232;-76